createdAt,value
2022-09-28T00:01:28.612Z,68.43
2022-09-28T00:05:34.812Z,68.49
2022-09-28T00:09:38.942Z,68.04
2022-09-28T00:13:43.047Z,67.93
2022-09-28T00:17:46.277Z,67.74
2022-09-28T00:21:50.902Z,67.26
2022-09-28T00:25:54.274Z,67.17
2022-09-28T00:29:57.203Z,67.87
2022-09-28T00:34:01.446Z,67.67
2022-09-28T00:38:06.098Z,67.55
2022-09-28T00:42:16.384Z,67.24
2022-09-28T00:46:23.188Z,67.45
2022-09-28T00:50:30.527Z,67.82
2022-09-28T00:54:36.400Z,68.61
2022-09-28T00:58:43.174Z,69.30
2022-09-28T01:02:48.266Z,69.84
2022-09-28T01:06:52.551Z,70.01
2022-09-28T01:10:57.603Z,70.22
2022-09-28T01:15:02.134Z,69.82
2022-09-28T01:19:19.646Z,69.25
2022-09-28T01:23:47.284Z,69.54
2022-09-28T01:27:55.974Z,69.04
2022-09-28T01:32:07.527Z,68.81
2022-09-28T01:36:15.756Z,68.25
2022-09-28T01:40:20.355Z,67.91
2022-09-28T01:44:27.814Z,68.12
2022-09-28T01:48:37.212Z,68.06
2022-09-28T01:52:47.284Z,68.43
2022-09-28T01:56:56.209Z,68.76
2022-09-28T02:01:05.779Z,68.80
2022-09-28T02:05:15.649Z,68.50
2022-09-28T02:09:22.815Z,68.59
2022-09-28T02:13:31.340Z,69.03
2022-09-28T02:17:36.594Z,69.26
2022-09-28T02:21:45.428Z,69.00
2022-09-28T02:25:53.161Z,70.03
2022-09-28T02:29:56.605Z,70.73
2022-09-28T02:34:01.451Z,71.25
2022-09-28T02:38:05.162Z,71.49
2022-09-28T02:42:18.202Z,71.88
2022-09-28T02:46:31.163Z,72.02
2022-09-28T02:50:40.444Z,71.55
2022-09-28T02:55:15.058Z,72.05
2022-09-28T02:59:33.258Z,72.13
2022-09-28T03:03:47.056Z,72.08
2022-09-28T03:07:59.919Z,72.03
2022-09-28T03:12:09.425Z,72.06
2022-09-28T03:16:14.299Z,72.55
2022-09-28T03:20:17.975Z,72.77
2022-09-28T03:24:23.384Z,72.49
2022-09-28T03:28:26.573Z,72.03
2022-09-28T03:32:30.203Z,71.68
2022-09-28T03:36:33.877Z,71.69
2022-09-28T03:40:38.393Z,72.18
2022-09-28T03:44:41.915Z,72.21
2022-09-28T03:48:45.209Z,72.50
2022-09-28T03:52:48.967Z,72.32
2022-09-28T03:56:53.304Z,72.16
2022-09-28T04:00:56.712Z,71.95
2022-09-28T04:04:59.757Z,72.47
2022-09-28T04:09:03.207Z,72.65
2022-09-28T04:13:08.039Z,72.34
2022-09-28T04:17:11.616Z,72.29
2022-09-28T04:21:16.824Z,72.31
2022-09-28T04:25:19.899Z,72.37
2022-09-28T04:29:25.206Z,72.56
2022-09-28T04:33:28.203Z,72.80
2022-09-28T04:37:31.858Z,72.70
2022-09-28T04:41:34.927Z,73.02
2022-09-28T04:45:39.844Z,73.05
2022-09-28T04:49:42.955Z,73.58
2022-09-28T04:53:46.317Z,74.08
2022-09-28T04:57:49.573Z,74.45
2022-09-28T05:01:55.123Z,74.33
2022-09-28T05:05:58.137Z,74.32
2022-09-28T05:10:02.089Z,74.49
2022-09-28T05:14:05.965Z,74.38
2022-09-28T05:18:10.992Z,74.47
2022-09-28T05:22:14.975Z,74.72
2022-09-28T05:26:18.837Z,74.94
2022-09-28T05:30:22.250Z,75.10
2022-09-28T05:34:27.315Z,75.25
2022-09-28T05:38:30.980Z,75.33
2022-09-28T05:42:34.662Z,75.26
2022-09-28T05:46:37.666Z,75.11
2022-09-28T05:50:42.493Z,74.87
2022-09-28T05:54:45.460Z,74.17
2022-09-28T05:58:48.901Z,73.79
2022-09-28T06:03:00.178Z,73.23
2022-09-28T06:07:05.057Z,72.81
2022-09-28T06:11:08.095Z,73.36
2022-09-28T06:15:12.118Z,73.43
2022-09-28T06:19:15.206Z,73.61
2022-09-28T06:23:19.972Z,72.85
2022-09-28T06:27:22.993Z,72.76
2022-09-28T06:31:26.463Z,72.39
2022-09-28T06:35:32.368Z,72.38
2022-09-28T06:39:37.000Z,72.15
2022-09-28T06:43:40.913Z,72.48
2022-09-28T06:47:43.894Z,71.91
2022-09-28T06:51:47.970Z,72.96
2022-09-28T06:55:52.531Z,71.42
2022-09-28T06:59:55.966Z,70.67
2022-09-28T07:03:59.027Z,68.10
2022-09-28T07:08:03.166Z,66.60
2022-09-28T07:12:10.300Z,62.31
2022-09-28T07:16:14.039Z,61.42
2022-09-28T07:20:19.340Z,60.02
2022-09-28T07:24:23.534Z,60.26
2022-09-28T07:28:28.388Z,60.51
2022-09-28T07:32:32.712Z,58.82
2022-09-28T07:36:36.962Z,57.44
2022-09-28T07:40:58.010Z,57.60
2022-09-28T07:45:03.278Z,59.06
2022-09-28T07:49:10.025Z,57.52
2022-09-28T07:53:15.520Z,55.83
2022-09-28T07:57:18.769Z,55.60
2022-09-28T08:01:23.669Z,53.90
2022-09-28T08:05:27.644Z,52.81
2022-09-28T08:09:30.839Z,51.76
2022-09-28T08:13:34.189Z,52.05
2022-09-28T08:17:39.381Z,53.57
2022-09-28T08:21:48.415Z,52.96
2022-09-28T08:25:54.652Z,50.70
2022-09-28T08:29:58.228Z,51.68
2022-09-28T08:34:04.806Z,51.69
2022-09-28T08:38:08.892Z,51.64
2022-09-28T08:42:32.081Z,52.54
2022-09-28T08:46:40.757Z,51.82
2022-09-28T08:50:52.708Z,51.01
2022-09-28T08:55:04.258Z,52.38
2022-09-28T08:59:14.148Z,51.82
2022-09-28T09:03:22.227Z,52.40
2022-09-28T09:07:48.758Z,55.68
2022-09-28T09:12:02.511Z,51.82
2022-09-28T09:16:13.191Z,49.36
2022-09-28T09:20:22.305Z,50.36
2022-09-28T09:24:40.277Z,52.25
2022-09-28T09:29:04.110Z,51.58
2022-09-28T09:33:36.376Z,49.59
2022-09-28T09:38:03.582Z,49.10
2022-09-28T09:42:21.299Z,49.50
2022-09-28T09:46:35.229Z,45.80
2022-09-28T09:50:46.024Z,46.37
2022-09-28T09:54:56.227Z,44.43
2022-09-28T09:59:08.534Z,47.32
2022-09-28T10:03:21.244Z,47.85
2022-09-28T10:07:26.389Z,54.44
2022-09-28T10:11:33.169Z,48.21
2022-09-28T10:15:38.218Z,47.16
2022-09-28T10:19:41.294Z,48.15
2022-09-28T10:23:46.668Z,48.88
2022-09-28T10:27:52.825Z,47.89
2022-09-28T10:31:57.770Z,48.90
2022-09-28T10:36:01.671Z,49.90
2022-09-28T10:40:05.769Z,49.26
2022-09-28T10:44:19.314Z,51.31
2022-09-28T10:48:24.505Z,51.36
2022-09-28T10:52:46.690Z,54.79
2022-09-28T10:56:51.271Z,52.81
2022-09-28T11:01:01.420Z,51.43
2022-09-28T11:05:09.260Z,51.39
2022-09-28T11:09:29.838Z,52.61
2022-09-28T11:13:44.578Z,49.56
2022-09-28T11:17:47.702Z,47.40
2022-09-28T11:21:54.045Z,47.00
2022-09-28T11:25:59.917Z,46.94
2022-09-28T11:30:03.469Z,46.07
2022-09-28T11:34:18.040Z,50.22
2022-09-28T11:38:35.516Z,50.69
2022-09-28T11:42:50.993Z,49.32
2022-09-28T11:47:06.746Z,48.75
2022-09-28T11:51:16.697Z,49.42
2022-09-28T11:55:30.947Z,48.67
2022-09-28T11:59:37.999Z,47.51
2022-09-28T12:03:44.083Z,45.50
2022-09-28T12:07:52.231Z,47.03
2022-09-28T12:12:03.719Z,47.22
2022-09-28T12:16:32.662Z,47.40
2022-09-28T12:20:40.124Z,47.54
2022-09-28T12:24:47.670Z,47.25
2022-09-28T12:28:58.119Z,44.80
2022-09-28T12:33:05.901Z,47.75
2022-09-28T12:37:23.830Z,49.18
2022-09-28T12:41:43.694Z,49.74
2022-09-28T12:46:12.038Z,49.10
2022-09-28T12:50:41.620Z,47.43
2022-09-28T12:59:11.672Z,45.69
2022-09-28T13:03:51.718Z,48.15
2022-09-28T13:08:05.182Z,48.52
2022-09-28T13:12:27.695Z,50.20
2022-09-28T13:16:37.093Z,47.15
2022-09-28T13:20:52.736Z,48.28
2022-09-28T13:25:01.397Z,48.02
2022-09-28T13:29:11.346Z,47.73
2022-09-28T13:33:22.361Z,49.19
2022-09-28T13:37:27.120Z,49.17
2022-09-28T13:41:33.622Z,50.31
2022-09-28T13:45:57.221Z,51.61
2022-09-28T13:50:14.527Z,51.17
2022-09-28T13:54:48.801Z,51.70
2022-09-28T13:58:56.874Z,51.17
2022-09-28T14:03:06.465Z,51.47
2022-09-28T14:07:13.084Z,50.97
2022-09-28T14:11:43.635Z,53.10
2022-09-28T14:15:47.089Z,52.54
2022-09-28T14:19:53.710Z,53.43
2022-09-28T14:24:15.423Z,54.64
2022-09-28T14:28:38.492Z,55.26
2022-09-28T14:32:44.094Z,55.73
2022-09-28T14:37:08.388Z,55.70
2022-09-28T14:41:26.923Z,57.10
2022-09-28T14:45:39.014Z,56.79
2022-09-28T14:49:49.165Z,57.71
2022-09-28T14:53:52.792Z,58.04
2022-09-28T14:57:59.012Z,59.17
2022-09-28T15:02:19.469Z,59.02
2022-09-28T15:06:24.958Z,59.79
2022-09-28T15:10:33.650Z,59.38
2022-09-28T15:14:49.773Z,59.51
2022-09-28T15:19:20.093Z,60.05
2022-09-28T15:23:36.280Z,60.18
2022-09-28T15:27:41.389Z,60.95
2022-09-28T15:31:45.515Z,60.94
2022-09-28T15:35:59.147Z,61.05
2022-09-28T15:40:06.207Z,61.51
2022-09-28T15:44:27.342Z,60.75
2022-09-28T15:48:34.304Z,61.48
2022-09-28T15:52:43.568Z,61.80
2022-09-28T15:56:55.576Z,62.19
2022-09-28T16:01:26.839Z,62.13
2022-09-28T16:05:50.342Z,62.95
2022-09-28T16:10:05.443Z,63.11
2022-09-28T16:14:19.460Z,63.54
2022-09-28T16:18:25.488Z,64.38
2022-09-28T16:22:29.065Z,64.73
2022-09-28T16:26:36.853Z,64.70
2022-09-28T16:31:04.528Z,63.90
2022-09-28T16:35:20.004Z,64.29
2022-09-28T16:39:22.991Z,65.27
2022-09-28T16:43:31.010Z,65.39
2022-09-28T16:47:35.159Z,65.05
2022-09-28T16:51:40.661Z,64.99
2022-09-28T16:55:43.746Z,64.85
2022-09-28T16:59:48.205Z,65.66
2022-09-28T17:03:51.705Z,65.81
2022-09-28T17:08:02.134Z,65.02
2022-09-28T17:12:13.545Z,65.25
2022-09-28T17:16:28.151Z,65.27
2022-09-28T17:20:46.468Z,65.65
2022-09-28T17:24:49.519Z,66.32
2022-09-28T17:28:53.161Z,66.31
2022-09-28T17:33:00.588Z,66.83
2022-09-28T17:37:03.753Z,66.69
2022-09-28T17:41:07.442Z,67.22
2022-09-28T17:45:11.385Z,66.79
2022-09-28T17:49:17.234Z,67.21
2022-09-28T17:53:20.210Z,67.97
2022-09-28T17:57:23.891Z,67.74
2022-09-28T18:01:31.510Z,67.79
2022-09-28T18:05:38.580Z,67.46
2022-09-28T18:09:42.180Z,67.43
2022-09-28T18:13:47.934Z,68.29
2022-09-28T18:17:50.988Z,68.83
2022-09-28T18:21:56.941Z,67.91
2022-09-28T18:26:00.400Z,68.21
2022-09-28T18:30:04.144Z,67.98
2022-09-28T18:34:07.855Z,68.18
2022-09-28T18:38:13.244Z,68.35
2022-09-28T18:42:16.477Z,68.36
2022-09-28T18:46:20.784Z,68.40
2022-09-28T18:50:24.307Z,67.96
2022-09-28T18:54:29.664Z,68.19
2022-09-28T18:58:36.253Z,68.35
2022-09-28T19:02:40.023Z,68.79
2022-09-28T19:06:45.103Z,68.80
2022-09-28T19:10:50.230Z,69.11
2022-09-28T19:14:53.261Z,69.49
2022-09-28T19:18:58.713Z,69.42
2022-09-28T19:23:02.950Z,69.31
2022-09-28T19:27:07.674Z,69.55
2022-09-28T19:31:12.908Z,69.16
2022-09-28T19:35:17.542Z,68.89
2022-09-28T19:39:21.259Z,69.48
2022-09-28T19:43:32.251Z,69.46
2022-09-28T19:47:36.419Z,69.33
2022-09-28T19:51:51.537Z,69.69
2022-09-28T19:56:05.915Z,69.75
2022-09-28T20:00:12.184Z,69.97
2022-09-28T20:04:16.985Z,70.31
2022-09-28T20:08:21.055Z,70.08
2022-09-28T20:12:24.258Z,69.85
2022-09-28T20:16:30.813Z,70.28
2022-09-28T20:20:34.787Z,70.70
2022-09-28T20:24:37.927Z,70.82
2022-09-28T20:28:41.480Z,70.97
2022-09-28T20:32:49.565Z,70.69
2022-09-28T20:36:55.434Z,70.38
2022-09-28T20:41:01.648Z,70.65
2022-09-28T20:45:05.628Z,70.59
2022-09-28T20:49:10.339Z,70.72
2022-09-28T20:53:13.809Z,70.50
2022-09-28T20:57:20.779Z,70.54
2022-09-28T21:01:25.309Z,70.36
2022-09-28T21:05:30.750Z,70.60
2022-09-28T21:09:34.295Z,71.00
2022-09-28T21:13:37.427Z,70.42
2022-09-28T21:17:40.942Z,70.50
2022-09-28T21:21:45.738Z,70.49
2022-09-28T21:25:48.835Z,70.15
2022-09-28T21:29:52.227Z,70.35
2022-09-28T21:33:55.588Z,70.84
2022-09-28T21:38:00.024Z,70.83
2022-09-28T21:42:03.575Z,70.79
2022-09-28T21:46:07.643Z,71.13
2022-09-28T21:50:10.893Z,71.26
2022-09-28T21:54:15.800Z,71.04
2022-09-28T21:58:19.346Z,71.02
2022-09-28T22:02:23.325Z,71.03
2022-09-28T22:06:29.193Z,71.06
2022-09-28T22:10:34.197Z,71.07
2022-09-28T22:14:37.287Z,71.19
2022-09-28T22:18:42.132Z,71.02
2022-09-28T22:22:50.439Z,71.25
2022-09-28T22:26:54.758Z,71.14
2022-09-28T22:30:58.915Z,71.30
2022-09-28T22:35:02.331Z,71.06
2022-09-28T22:39:05.866Z,71.17
2022-09-28T22:43:10.737Z,71.09
2022-09-28T22:47:14.118Z,71.26
2022-09-28T22:51:18.130Z,71.26
2022-09-28T22:55:21.545Z,71.38
2022-09-28T22:59:26.790Z,71.10
2022-09-28T23:03:29.722Z,71.72
2022-09-28T23:07:33.351Z,71.38
2022-09-28T23:11:37.054Z,71.25
2022-09-28T23:15:41.786Z,70.88
2022-09-28T23:19:45.357Z,70.63
2022-09-28T23:23:53.401Z,70.67
2022-09-28T23:27:57.014Z,70.55
2022-09-28T23:32:02.177Z,70.60
2022-09-28T23:36:05.942Z,70.96
2022-09-28T23:40:10.012Z,70.90
2022-09-28T23:44:12.957Z,70.69
2022-09-28T23:48:17.967Z,70.69
2022-09-28T23:52:21.446Z,70.71
2022-09-28T23:56:24.471Z,70.88
